createdAt,value
2018-05-27T00:04:41.486Z,20.33
2018-05-27T00:09:44.839Z,9.83
2018-05-27T00:14:48.212Z,12.67
2018-05-27T00:19:51.238Z,7.47
2018-05-27T00:24:54.246Z,6.80
2018-05-27T00:29:57.185Z,6.03
2018-05-27T00:35:00.839Z,7.23
2018-05-27T00:40:03.968Z,10.70
2018-05-27T00:45:06.842Z,8.47
2018-05-27T00:50:09.953Z,7.63
2018-05-27T00:55:13.117Z,8.07
2018-05-27T01:00:16.301Z,9.00
2018-05-27T01:05:19.991Z,6.63
2018-05-27T01:10:23.104Z,8.23
2018-05-27T01:15:26.358Z,7.37
2018-05-27T01:20:29.574Z,6.00
2018-05-27T01:25:37.929Z,6.57
2018-05-27T01:30:41.011Z,6.17
2018-05-27T01:35:44.095Z,6.10
2018-05-27T01:40:48.998Z,9.30
2018-05-27T01:45:51.872Z,6.73
2018-05-27T01:50:55.750Z,7.93
2018-05-27T01:55:59.134Z,6.07
2018-05-27T02:01:02.361Z,6.57
2018-05-27T02:06:05.802Z,5.50
2018-05-27T02:11:10.063Z,4.07
2018-05-27T02:16:13.356Z,5.33
2018-05-27T02:21:17.065Z,4.63
2018-05-27T02:26:20.294Z,5.03
2018-05-27T02:31:23.390Z,4.03
2018-05-27T02:36:26.602Z,5.10
2018-05-27T02:41:32.337Z,4.67
2018-05-27T02:46:35.807Z,4.10
2018-05-27T02:51:38.936Z,5.63
2018-05-27T02:56:41.961Z,5.40
2018-05-27T03:01:45.238Z,4.07
2018-05-27T03:06:48.189Z,8.50
2018-05-27T03:11:51.469Z,4.83
2018-05-27T03:16:54.354Z,5.17
2018-05-27T03:21:57.253Z,4.73
2018-05-27T03:27:00.453Z,5.30
2018-05-27T03:32:03.348Z,4.77
2018-05-27T03:37:06.197Z,5.47
2018-05-27T03:42:09.784Z,5.10
2018-05-27T03:47:12.945Z,7.50
2018-05-27T03:52:16.386Z,6.17
2018-05-27T03:57:19.457Z,7.17
2018-05-27T04:02:22.749Z,5.33
2018-05-27T04:08:33.834Z,6.83
2018-05-27T04:13:37.242Z,6.53
2018-05-27T04:18:40.381Z,6.17
2018-05-27T04:23:43.785Z,6.70
2018-05-27T04:28:47.210Z,8.93
2018-05-27T04:33:50.045Z,7.27
2018-05-27T04:38:53.101Z,4.97
2018-05-27T04:43:56.484Z,7.10
2018-05-27T04:48:59.740Z,10.40
2018-05-27T04:54:03.091Z,7.60
2018-05-27T04:59:07.345Z,9.57
2018-05-27T05:04:10.829Z,12.13
2018-05-27T05:09:14.113Z,7.40
2018-05-27T05:14:17.606Z,12.13
2018-05-27T05:19:20.720Z,7.10
2018-05-27T05:24:23.856Z,13.43
2018-05-27T05:29:26.947Z,12.17
2018-05-27T05:34:29.946Z,11.77
2018-05-27T05:39:32.814Z,15.40
2018-05-27T05:44:36.315Z,10.87
2018-05-27T05:49:39.160Z,18.33
2018-05-27T05:54:42.087Z,12.37
2018-05-27T05:59:45.665Z,9.80
2018-05-27T06:04:48.575Z,17.50
2018-05-27T06:09:51.445Z,8.20
2018-05-27T06:14:54.433Z,8.07
2018-05-27T06:19:57.305Z,10.17
2018-05-27T06:25:00.160Z,14.73
2018-05-27T06:30:03.427Z,15.77
2018-05-27T06:35:06.285Z,13.57
2018-05-27T06:40:09.206Z,9.57
2018-05-27T06:45:12.433Z,12.53
2018-05-27T06:50:15.422Z,10.20
2018-05-27T06:55:18.605Z,17.50
2018-05-27T07:00:21.845Z,9.10
2018-05-27T07:05:24.701Z,10.47
2018-05-27T07:10:33.095Z,12.40
2018-05-27T07:15:36.445Z,12.17
2018-05-27T07:20:39.308Z,10.67
2018-05-27T07:25:42.180Z,7.27
2018-05-27T07:30:45.442Z,13.47
2018-05-27T07:35:48.428Z,11.20
2018-05-27T07:40:51.320Z,8.47
2018-05-27T07:45:59.179Z,9.10
2018-05-27T07:51:09.179Z,11.30
2018-05-27T07:56:12.829Z,13.37
2018-05-27T08:01:15.740Z,7.83
2018-05-27T08:06:19.441Z,8.90
2018-05-27T08:11:22.330Z,7.03
2018-05-27T08:16:25.373Z,8.40
2018-05-27T08:21:28.217Z,7.97
2018-05-27T08:26:31.579Z,7.93
2018-05-27T08:31:35.548Z,8.37
2018-05-27T08:36:44.435Z,7.57
2018-05-27T08:41:48.106Z,6.80
2018-05-27T08:46:51.084Z,8.60
2018-05-27T08:51:54.180Z,11.13
2018-05-27T08:56:57.342Z,4.97
2018-05-27T09:02:00.655Z,7.87
2018-05-27T09:07:07.077Z,10.93
2018-05-27T09:12:15.344Z,7.80
2018-05-27T09:17:18.500Z,7.07
2018-05-27T09:22:21.745Z,6.93
2018-05-27T09:27:25.110Z,9.03
2018-05-27T09:32:28.120Z,7.20
2018-05-27T09:37:31.171Z,8.00
2018-05-27T09:42:34.427Z,8.97
2018-05-27T09:47:37.569Z,7.23
2018-05-27T09:52:40.492Z,8.23
2018-05-27T09:57:43.458Z,7.30
2018-05-27T10:02:46.392Z,6.83
2018-05-27T10:07:49.995Z,7.73
2018-05-27T10:12:53.466Z,8.40
2018-05-27T10:17:56.425Z,8.80
2018-05-27T10:23:01.137Z,7.30
2018-05-27T10:28:04.408Z,9.50
2018-05-27T10:33:07.428Z,9.40
2018-05-27T10:38:10.364Z,10.00
2018-05-27T10:43:18.825Z,10.80
2018-05-27T10:48:26.287Z,14.60
2018-05-27T10:53:29.181Z,10.67
2018-05-27T10:58:32.086Z,11.70
2018-05-27T11:03:35.030Z,11.80
2018-05-27T11:08:37.876Z,11.97
2018-05-27T11:13:41.775Z,11.30
2018-05-27T11:18:45.309Z,13.20
2018-05-27T11:23:48.172Z,12.03
2018-05-27T11:28:51.042Z,10.90
2018-05-27T11:33:53.965Z,9.77
2018-05-27T11:38:56.870Z,9.20
2018-05-27T11:44:00.080Z,8.83
2018-05-27T11:49:03.758Z,11.27
2018-05-27T11:54:06.717Z,10.93
2018-05-27T11:59:09.656Z,11.27
2018-05-27T12:04:12.818Z,13.43
2018-05-27T12:09:15.855Z,9.57
2018-05-27T12:14:18.827Z,9.10
2018-05-27T12:19:23.322Z,13.40
2018-05-27T12:24:26.630Z,12.73
2018-05-27T12:29:29.517Z,10.70
2018-05-27T12:34:32.638Z,10.73
2018-05-27T12:39:35.646Z,7.90
2018-05-27T12:44:38.946Z,9.97
2018-05-27T12:49:42.362Z,9.50
2018-05-27T12:54:45.531Z,9.17
2018-05-27T12:59:48.957Z,8.10
2018-05-27T13:04:52.199Z,8.03
2018-05-27T13:09:57.253Z,7.03
2018-05-27T13:15:05.312Z,8.80
2018-05-27T13:20:08.960Z,10.37
2018-05-27T13:25:12.282Z,7.10
2018-05-27T13:30:15.410Z,8.37
2018-05-27T13:35:18.873Z,8.00
2018-05-27T13:40:22.330Z,6.77
2018-05-27T13:45:25.473Z,7.83
2018-05-27T13:50:29.049Z,6.23
2018-05-27T13:55:33.316Z,6.77
2018-05-27T14:00:37.035Z,6.00
2018-05-27T14:05:40.672Z,4.77
2018-05-27T14:10:43.931Z,6.67
2018-05-27T14:15:47.114Z,6.77
2018-05-27T14:20:50.110Z,5.90
2018-05-27T14:25:53.501Z,6.43
2018-05-27T14:30:56.573Z,8.23
2018-05-27T14:35:59.806Z,5.83
2018-05-27T14:41:03.321Z,6.10
2018-05-27T14:46:06.605Z,7.43
2018-05-27T14:51:10.495Z,13.50
2018-05-27T14:56:14.157Z,6.43
2018-05-27T15:01:17.535Z,6.30
2018-05-27T15:06:21.090Z,9.33
2018-05-27T15:11:24.405Z,5.83
2018-05-27T15:16:28.047Z,6.40
2018-05-27T15:21:31.519Z,7.67
2018-05-27T15:26:37.980Z,7.17
2018-05-27T15:31:41.784Z,8.57
2018-05-27T15:36:45.304Z,5.40
2018-05-27T15:41:48.525Z,6.20
2018-05-27T15:46:51.478Z,5.97
2018-05-27T15:51:54.602Z,5.87
2018-05-27T15:56:58.727Z,9.57
2018-05-27T16:02:02.364Z,8.00
2018-05-27T16:07:06.029Z,7.87
2018-05-27T16:12:09.563Z,9.57
2018-05-27T16:17:13.397Z,11.37
2018-05-27T16:22:16.768Z,8.10
2018-05-27T16:27:20.181Z,7.40
2018-05-27T16:32:23.802Z,12.90
2018-05-27T16:37:27.037Z,8.13
2018-05-27T16:42:30.620Z,10.53
2018-05-27T16:47:35.118Z,18.60
2018-05-27T16:52:39.239Z,13.93
2018-05-27T16:57:43.042Z,13.47
2018-05-27T17:02:46.634Z,14.93
2018-05-27T17:07:50.451Z,17.97
2018-05-27T17:12:53.888Z,12.23
2018-05-27T17:17:57.542Z,9.33
2018-05-27T17:23:01.463Z,12.63
2018-05-27T17:28:05.457Z,11.50
2018-05-27T17:33:09.701Z,11.27
2018-05-27T17:38:13.902Z,13.00
2018-05-27T17:43:18.939Z,12.23
2018-05-27T17:48:22.344Z,13.70
2018-05-27T17:53:25.861Z,20.97
2018-05-27T17:58:29.695Z,12.93
2018-05-27T18:03:34.577Z,10.77
2018-05-27T18:08:39.452Z,12.37
2018-05-27T18:13:44.189Z,14.30
2018-05-27T18:18:48.104Z,17.80
2018-05-27T18:23:53.154Z,15.30
2018-05-27T18:28:57.723Z,21.83
2018-05-27T18:34:01.975Z,15.03
2018-05-27T18:39:06.364Z,12.67
2018-05-27T18:44:09.915Z,19.43
2018-05-27T18:49:13.015Z,11.97
2018-05-27T18:54:16.249Z,18.63
2018-05-27T18:59:19.450Z,23.73
2018-05-27T19:04:23.142Z,27.70
2018-05-27T19:09:26.894Z,19.73
2018-05-27T19:14:31.469Z,17.07
2018-05-27T19:19:35.915Z,25.93
2018-05-27T19:24:39.409Z,16.73
2018-05-27T19:29:42.709Z,20.00
2018-05-27T19:34:45.780Z,22.00
2018-05-27T19:39:48.840Z,21.90
2018-05-27T19:44:52.094Z,25.10
2018-05-27T19:49:55.114Z,26.17
2018-05-27T19:54:58.195Z,28.90
2018-05-27T20:00:01.140Z,20.63
2018-05-27T20:05:04.734Z,30.97
2018-05-27T20:10:07.964Z,23.27
2018-05-27T20:15:11.319Z,28.60
2018-05-27T20:20:14.429Z,23.73
2018-05-27T20:25:17.612Z,21.40
2018-05-27T20:30:20.629Z,17.60
2018-05-27T20:35:23.712Z,27.60
2018-05-27T20:40:26.707Z,23.60
2018-05-27T20:45:29.606Z,26.10
2018-05-27T20:50:32.700Z,18.20
2018-05-27T20:55:35.896Z,26.33
2018-05-27T21:00:39.483Z,18.10
2018-05-27T21:05:44.039Z,25.30
2018-05-27T21:10:47.381Z,25.77
2018-05-27T21:15:50.332Z,21.77
2018-05-27T21:20:53.579Z,34.30
2018-05-27T21:25:56.817Z,33.67
2018-05-27T21:30:59.733Z,24.93
2018-05-27T21:36:02.737Z,39.63
2018-05-27T21:41:05.743Z,29.57
2018-05-27T21:46:08.653Z,28.70
2018-05-27T21:51:12.328Z,32.97
2018-05-27T21:56:15.939Z,38.00
2018-05-27T22:01:19.168Z,48.23
2018-05-27T22:06:22.332Z,46.27
2018-05-27T22:11:25.340Z,47.13
2018-05-27T22:16:28.284Z,32.40
2018-05-27T22:21:31.745Z,32.93
2018-05-27T22:26:35.121Z,35.93
2018-05-27T22:31:38.150Z,45.70
2018-05-27T22:36:41.312Z,45.80
2018-05-27T22:41:44.320Z,31.07
2018-05-27T22:46:47.489Z,31.93
2018-05-27T22:51:50.653Z,45.07
2018-05-27T22:56:53.709Z,46.43
2018-05-27T23:01:56.669Z,48.10
2018-05-27T23:07:00.103Z,51.60
2018-05-27T23:12:03.228Z,69.50
2018-05-27T23:17:06.319Z,54.97
2018-05-27T23:22:09.449Z,59.07
2018-05-27T23:27:12.791Z,57.17
2018-05-27T23:32:15.854Z,66.43
2018-05-27T23:37:18.914Z,41.47
2018-05-27T23:42:22.654Z,44.50
2018-05-27T23:47:25.604Z,53.53
2018-05-27T23:52:28.536Z,44.77
2018-05-27T23:57:32.438Z,47.17
